createdAt,value
2022-12-15T00:00:25.629Z,32.93
2022-12-15T00:03:11.751Z,30.63
2022-12-15T00:05:58.736Z,30.77
2022-12-15T00:08:44.537Z,37.37
2022-12-15T00:11:30.470Z,34.13
2022-12-15T00:14:16.217Z,32.67
2022-12-15T00:17:02.299Z,33.47
2022-12-15T00:19:48.239Z,29.93
2022-12-15T00:22:35.092Z,32.00
2022-12-15T00:25:21.035Z,35.70
2022-12-15T00:28:06.733Z,30.90
2022-12-15T00:30:55.065Z,37.23
2022-12-15T00:33:43.394Z,31.83
2022-12-15T00:36:29.221Z,37.73
2022-12-15T00:39:03.490Z,33.53
2022-12-15T00:41:32.191Z,37.13
2022-12-15T00:44:00.466Z,35.50
2022-12-15T00:46:46.120Z,33.63
2022-12-15T00:49:28.504Z,34.80
2022-12-15T00:52:14.454Z,35.03
2022-12-15T00:55:01.517Z,31.87
2022-12-15T00:57:47.534Z,33.77
2022-12-15T01:00:34.032Z,34.97
2022-12-15T01:03:19.831Z,37.43
2022-12-15T01:06:05.452Z,30.73
2022-12-15T01:08:51.661Z,33.53
2022-12-15T01:11:38.652Z,30.33
2022-12-15T01:14:24.515Z,32.43
2022-12-15T01:17:10.474Z,30.07
2022-12-15T01:19:56.373Z,32.67
2022-12-15T01:22:24.939Z,39.07
2022-12-15T01:24:53.191Z,37.13
2022-12-15T01:27:22.826Z,32.00
2022-12-15T01:29:51.091Z,32.35
2022-12-15T01:32:19.386Z,36.93
2022-12-15T01:34:47.664Z,34.40
2022-12-15T01:37:16.144Z,35.70
2022-12-15T01:40:16.348Z,31.90
2022-12-15T01:42:46.176Z,36.83
2022-12-15T01:45:53.828Z,34.47
2022-12-15T01:48:29.311Z,39.87
2022-12-15T01:51:14.763Z,33.77
2022-12-15T01:53:50.127Z,32.57
2022-12-15T01:56:19.483Z,34.07
2022-12-15T01:58:53.809Z,36.43
2022-12-15T02:01:22.297Z,33.50
2022-12-15T02:03:50.742Z,33.53
2022-12-15T02:06:22.512Z,34.13
2022-12-15T02:08:53.811Z,36.23
2022-12-15T02:11:43.754Z,31.03
2022-12-15T02:14:19.616Z,33.70
2022-12-15T02:17:18.995Z,29.20
2022-12-15T02:20:27.503Z,33.07
2022-12-15T02:23:58.285Z,32.20
2022-12-15T02:30:29.744Z,33.80
2022-12-15T02:33:08.388Z,33.80
2022-12-15T02:35:49.249Z,34.77
2022-12-15T02:38:29.479Z,37.53
2022-12-15T02:41:00.536Z,37.53
2022-12-15T02:43:30.723Z,34.70
2022-12-15T02:48:50.746Z,34.88
2022-12-15T02:51:37.061Z,36.87
2022-12-15T02:54:28.545Z,35.20
2022-12-15T02:57:06.231Z,38.77
2022-12-15T02:59:43.248Z,35.97
2022-12-15T03:02:15.333Z,35.37
2022-12-15T03:04:45.528Z,35.37
2022-12-15T03:07:15.672Z,37.78
2022-12-15T03:09:43.915Z,35.90
2022-12-15T03:12:12.139Z,36.20
2022-12-15T03:14:40.415Z,35.57
2022-12-15T03:17:08.784Z,31.40
2022-12-15T03:19:38.449Z,33.43
2022-12-15T03:22:06.781Z,38.67
2022-12-15T03:24:35.301Z,31.70
2022-12-15T03:27:03.644Z,30.67
2022-12-15T03:29:31.991Z,29.90
2022-12-15T03:32:00.537Z,30.27
2022-12-15T03:34:28.841Z,30.40
2022-12-15T03:36:59.215Z,29.20
2022-12-15T03:39:27.605Z,30.38
2022-12-15T03:41:55.912Z,36.57
2022-12-15T03:44:24.246Z,31.07
2022-12-15T03:46:52.520Z,28.80
2022-12-15T03:49:20.776Z,33.17
2022-12-15T03:51:49.022Z,28.10
2022-12-15T03:54:18.631Z,28.53
2022-12-15T03:56:46.910Z,25.73
2022-12-15T03:59:15.359Z,30.33
2022-12-15T04:01:49.055Z,26.33
2022-12-15T04:04:17.518Z,24.97
2022-12-15T04:06:46.145Z,40.17
2022-12-15T04:09:14.408Z,27.87
2022-12-15T04:11:44.331Z,22.83
2022-12-15T04:14:12.926Z,25.63
2022-12-15T04:16:41.150Z,21.07
2022-12-15T04:19:38.264Z,23.03
2022-12-15T04:22:06.525Z,21.67
2022-12-15T04:24:52.537Z,23.77
2022-12-15T04:27:39.710Z,27.07
2022-12-15T04:30:26.919Z,23.27
2022-12-15T04:33:13.229Z,20.50
2022-12-15T04:35:58.888Z,21.63
2022-12-15T04:38:50.510Z,27.93
2022-12-15T04:41:40.150Z,22.53
2022-12-15T04:44:29.207Z,22.37
2022-12-15T04:47:15.104Z,24.87
2022-12-15T04:50:00.738Z,21.47
2022-12-15T04:52:47.018Z,23.57
2022-12-15T04:55:32.884Z,20.97
2022-12-15T04:58:24.365Z,24.67
2022-12-15T05:01:12.016Z,20.83
2022-12-15T05:03:58.293Z,21.10
2022-12-15T05:06:44.189Z,20.70
2022-12-15T05:09:30.133Z,20.97
2022-12-15T05:12:16.115Z,20.07
2022-12-15T05:15:02.032Z,23.50
2022-12-15T05:17:49.710Z,23.80
2022-12-15T05:20:35.610Z,21.80
2022-12-15T05:23:21.410Z,24.20
2022-12-15T05:26:07.100Z,21.67
2022-12-15T05:28:52.907Z,21.80
2022-12-15T05:31:38.717Z,22.47
2022-12-15T05:34:08.314Z,23.23
2022-12-15T05:36:36.510Z,28.27
2022-12-15T05:39:05.418Z,27.17
2022-12-15T05:41:33.876Z,23.47
2022-12-15T05:44:02.155Z,24.53
2022-12-15T05:46:30.527Z,19.70
2022-12-15T05:48:59.127Z,22.93
2022-12-15T05:51:28.717Z,19.47
2022-12-15T05:53:56.995Z,20.13
2022-12-15T05:56:27.159Z,22.60
2022-12-15T05:58:56.943Z,19.67
2022-12-15T06:01:26.903Z,23.20
2022-12-15T06:03:55.574Z,24.45
2022-12-15T06:06:23.890Z,19.43
2022-12-15T06:08:53.675Z,24.33
2022-12-15T06:11:22.697Z,21.00
2022-12-15T06:13:51.248Z,20.23
2022-12-15T06:16:21.391Z,20.77
2022-12-15T06:18:55.115Z,20.15
2022-12-15T06:21:26.653Z,21.07
2022-12-15T06:23:57.910Z,22.13
2022-12-15T06:26:30.014Z,20.07
2022-12-15T06:29:02.584Z,20.10
2022-12-15T06:31:32.133Z,22.27
2022-12-15T06:34:02.466Z,22.33
2022-12-15T06:36:31.668Z,20.77
2022-12-15T06:39:02.503Z,21.97
2022-12-15T06:41:31.632Z,21.07
2022-12-15T06:44:01.088Z,19.73
2022-12-15T06:46:32.183Z,18.20
2022-12-15T06:49:00.876Z,18.03
2022-12-15T06:51:29.898Z,21.50
2022-12-15T06:53:58.164Z,19.10
2022-12-15T06:56:33.895Z,17.27
2022-12-15T06:59:04.423Z,19.67
2022-12-15T07:01:33.771Z,18.20
2022-12-15T07:04:04.298Z,17.03
2022-12-15T07:06:36.704Z,17.33
2022-12-15T07:09:08.341Z,15.90
2022-12-15T07:11:38.103Z,19.07
2022-12-15T07:14:06.424Z,19.55
2022-12-15T07:16:35.185Z,17.10
2022-12-15T07:19:03.567Z,17.83
2022-12-15T07:21:31.883Z,20.23
2022-12-15T07:24:01.285Z,17.83
2022-12-15T07:26:30.432Z,16.85
2022-12-15T07:29:00.097Z,16.87
2022-12-15T07:31:28.580Z,16.90
2022-12-15T07:33:58.439Z,17.53
2022-12-15T07:36:27.490Z,21.10
2022-12-15T07:39:01.285Z,21.00
2022-12-15T07:41:30.239Z,20.53
2022-12-15T07:44:00.126Z,17.53
2022-12-15T07:46:29.340Z,17.90
2022-12-15T07:48:57.680Z,20.20
2022-12-15T07:51:25.999Z,22.90
2022-12-15T07:53:54.442Z,21.70
2022-12-15T07:56:22.705Z,18.93
2022-12-15T07:58:51.990Z,19.97
2022-12-15T08:01:21.833Z,21.73
2022-12-15T08:03:50.635Z,15.73
2022-12-15T08:06:19.013Z,17.07
2022-12-15T08:08:50.996Z,17.90
2022-12-15T08:11:22.177Z,17.53
2022-12-15T08:14:10.607Z,16.73
2022-12-15T08:16:41.200Z,17.20
2022-12-15T08:19:13.523Z,16.25
2022-12-15T08:21:43.126Z,16.87
2022-12-15T08:24:12.060Z,17.00
2022-12-15T08:26:41.451Z,15.83
2022-12-15T08:32:03.575Z,14.43
2022-12-15T08:34:32.141Z,16.15
2022-12-15T08:37:00.441Z,15.70
2022-12-15T08:39:28.751Z,15.30
2022-12-15T08:41:57.428Z,19.00
2022-12-15T08:44:25.709Z,20.90
2022-12-15T08:46:53.994Z,18.20
2022-12-15T08:49:23.884Z,19.40
2022-12-15T08:51:52.451Z,18.40
2022-12-15T08:54:21.729Z,21.30
2022-12-15T08:56:50.170Z,21.20
2022-12-15T08:59:19.648Z,21.60
2022-12-15T09:01:48.413Z,19.15
2022-12-15T09:04:17.072Z,22.90
2022-12-15T09:06:50.762Z,22.10
2022-12-15T09:09:20.094Z,18.85
2022-12-15T09:11:48.726Z,17.35
2022-12-15T09:14:17.619Z,18.58
2022-12-15T09:16:46.132Z,23.52
2022-12-15T09:19:19.184Z,14.23
2022-12-15T09:21:49.449Z,22.88
2022-12-15T09:24:26.135Z,14.93
2022-12-15T09:27:00.835Z,19.20
2022-12-15T09:29:29.100Z,14.77
2022-12-15T09:31:57.483Z,17.15
2022-12-15T09:34:25.774Z,14.35
2022-12-15T09:36:55.736Z,17.38
2022-12-15T09:39:24.585Z,16.00
2022-12-15T09:41:56.963Z,16.70
2022-12-15T09:44:28.202Z,14.73
2022-12-15T09:47:06.940Z,13.70
2022-12-15T09:49:51.228Z,15.88
2022-12-15T09:52:25.076Z,20.10
2022-12-15T09:54:53.647Z,15.38
2022-12-15T09:57:34.506Z,16.55
2022-12-15T10:03:23.615Z,14.90
2022-12-15T10:06:20.893Z,15.93
2022-12-15T10:08:57.617Z,14.68
2022-12-15T10:11:44.579Z,13.75
2022-12-15T10:14:29.295Z,14.65
2022-12-15T10:17:08.203Z,17.85
2022-12-15T10:19:43.633Z,13.55
2022-12-15T10:22:15.178Z,16.98
2022-12-15T10:27:58.279Z,13.02
2022-12-15T10:30:26.703Z,11.68
2022-12-15T10:33:03.126Z,12.43
2022-12-15T10:35:34.825Z,12.15
2022-12-15T10:38:08.836Z,16.23
2022-12-15T10:40:50.440Z,14.32
2022-12-15T10:43:34.125Z,14.30
2022-12-15T10:46:08.642Z,15.77
2022-12-15T10:48:37.499Z,18.20
2022-12-15T10:51:26.644Z,13.68
2022-12-15T10:54:06.403Z,16.83
2022-12-15T10:56:40.095Z,18.63
2022-12-15T10:59:26.805Z,17.63
2022-12-15T11:01:55.313Z,15.98
2022-12-15T11:04:32.562Z,18.38
2022-12-15T11:07:02.807Z,16.08
2022-12-15T11:09:36.158Z,14.15
2022-12-15T11:12:36.960Z,14.68
2022-12-15T11:15:38.947Z,18.45
2022-12-15T11:18:17.455Z,13.25
2022-12-15T11:20:53.650Z,13.48
2022-12-15T11:23:31.837Z,14.18
2022-12-15T11:26:07.256Z,12.82
2022-12-15T11:28:46.915Z,10.60
2022-12-15T11:31:26.534Z,10.68
2022-12-15T11:33:55.558Z,12.52
2022-12-15T11:36:55.389Z,8.38
2022-12-15T11:39:42.556Z,10.03
2022-12-15T11:42:20.911Z,9.90
2022-12-15T11:45:00.467Z,9.43
2022-12-15T11:47:44.765Z,8.02
2022-12-15T11:50:29.049Z,8.15
2022-12-15T11:53:39.509Z,8.52
2022-12-15T11:56:19.204Z,10.00
2022-12-15T11:59:11.121Z,8.18
2022-12-15T12:02:13.124Z,7.28
2022-12-15T12:04:54.906Z,8.18
2022-12-15T12:07:41.784Z,7.93
2022-12-15T12:10:28.549Z,7.90
2022-12-15T12:13:10.741Z,6.82
2022-12-15T12:15:49.170Z,7.65
2022-12-15T12:18:22.833Z,12.48
2022-12-15T12:20:58.031Z,6.78
2022-12-15T12:23:34.903Z,6.03
2022-12-15T12:26:11.558Z,6.60
2022-12-15T12:28:48.737Z,6.80
2022-12-15T12:31:39.382Z,7.47
2022-12-15T12:34:19.139Z,8.10
2022-12-15T12:36:50.594Z,5.35
2022-12-15T12:39:22.413Z,8.77
2022-12-15T12:42:00.157Z,7.32
2022-12-15T12:44:34.438Z,10.27
2022-12-15T12:47:13.182Z,5.10
2022-12-15T12:49:46.543Z,9.15
2022-12-15T12:52:26.268Z,7.95
2022-12-15T12:54:59.565Z,8.13
2022-12-15T12:57:39.775Z,8.82
2022-12-15T13:00:25.863Z,9.13
2022-12-15T13:03:20.806Z,6.20
2022-12-15T13:05:54.447Z,8.32
2022-12-15T13:08:52.561Z,6.20
2022-12-15T13:11:58.783Z,6.72
2022-12-15T13:14:51.689Z,9.55
2022-12-15T13:17:30.881Z,6.65
2022-12-15T13:20:28.770Z,8.32
2022-12-15T13:23:37.889Z,7.70
2022-12-15T13:26:15.411Z,6.45
2022-12-15T13:28:50.503Z,4.80
2022-12-15T13:31:41.839Z,5.70
2022-12-15T13:34:24.057Z,4.97
2022-12-15T13:37:03.608Z,7.28
2022-12-15T13:39:58.896Z,9.02
2022-12-15T13:45:48.854Z,6.13
2022-12-15T13:48:30.742Z,6.20
2022-12-15T13:51:07.414Z,6.97
2022-12-15T13:53:43.731Z,6.20
2022-12-15T13:56:29.713Z,5.43
2022-12-15T13:59:07.048Z,12.15
2022-12-15T14:01:35.456Z,8.85
2022-12-15T14:04:15.530Z,4.50
2022-12-15T14:06:50.866Z,5.35
2022-12-15T14:09:27.049Z,5.18
2022-12-15T14:11:57.216Z,8.15
2022-12-15T14:14:29.184Z,7.00
2022-12-15T14:17:01.147Z,11.38
2022-12-15T14:19:40.040Z,8.40
2022-12-15T14:25:19.870Z,7.43
2022-12-15T14:27:50.757Z,5.78
2022-12-15T14:30:28.272Z,6.68
2022-12-15T14:33:02.962Z,9.40
2022-12-15T14:35:36.607Z,6.88
2022-12-15T14:38:09.456Z,7.78
2022-12-15T14:40:40.849Z,8.57
2022-12-15T14:43:22.305Z,6.63
2022-12-15T14:45:56.053Z,6.22
2022-12-15T14:48:41.033Z,10.93
2022-12-15T14:51:13.199Z,7.75
2022-12-15T14:53:44.694Z,7.97
2022-12-15T14:56:30.525Z,7.85
2022-12-15T14:59:04.685Z,8.82
2022-12-15T15:01:40.167Z,4.78
2022-12-15T15:03:05.904Z,5.43
2022-12-15T15:03:07.531Z,6.28
2022-12-15T15:03:12.252Z,16.33
2022-12-15T15:04:26.441Z,8.93
2022-12-15T15:06:57.064Z,6.75
2022-12-15T15:09:27.770Z,5.95
2022-12-15T15:14:30.917Z,12.98
2022-12-15T15:17:07.392Z,8.32
2022-12-15T15:19:40.016Z,7.78
2022-12-15T15:22:27.086Z,10.13
2022-12-15T15:24:55.454Z,18.02
2022-12-15T15:27:35.519Z,6.90
2022-12-15T15:30:23.860Z,8.85
2022-12-15T15:32:58.412Z,13.43
2022-12-15T15:35:32.883Z,10.90
2022-12-15T15:38:06.361Z,10.48
2022-12-15T15:40:34.689Z,18.40
2022-12-15T15:43:10.769Z,9.27
2022-12-15T15:45:42.305Z,13.20
2022-12-15T15:48:15.854Z,11.10
2022-12-15T15:50:45.472Z,13.93
2022-12-15T15:53:20.524Z,12.15
2022-12-15T15:55:50.846Z,13.27
2022-12-15T15:58:19.515Z,14.45
2022-12-15T16:00:49.309Z,9.73
2022-12-15T16:03:18.016Z,9.67
2022-12-15T16:05:47.055Z,10.32
2022-12-15T16:08:18.504Z,13.70
2022-12-15T16:10:49.386Z,11.57
2022-12-15T16:13:24.062Z,9.98
2022-12-15T16:15:56.033Z,12.35
2022-12-15T16:18:24.391Z,13.10
2022-12-15T16:20:53.924Z,11.77
2022-12-15T16:23:25.984Z,11.55
2022-12-15T16:25:56.645Z,11.27
2022-12-15T16:30:56.293Z,11.85
2022-12-15T16:33:24.693Z,10.48
2022-12-15T16:35:53.620Z,11.88
2022-12-15T16:38:26.308Z,16.23
2022-12-15T16:40:55.244Z,14.77
2022-12-15T16:43:29.009Z,9.65
2022-12-15T16:46:02.905Z,12.95
2022-12-15T16:48:31.695Z,12.45
2022-12-15T16:51:00.679Z,10.45
2022-12-15T16:53:32.621Z,13.77
2022-12-15T16:56:03.334Z,15.05
2022-12-15T16:58:32.784Z,13.60
2022-12-15T17:01:03.889Z,12.57
2022-12-15T17:03:32.519Z,16.55
2022-12-15T17:06:06.239Z,17.20
2022-12-15T17:08:40.380Z,15.13
2022-12-15T17:11:14.972Z,13.80
2022-12-15T17:13:47.910Z,15.98
2022-12-15T17:16:18.368Z,13.90
2022-12-15T17:18:47.080Z,13.25
2022-12-15T17:21:19.191Z,15.35
2022-12-15T17:23:52.255Z,15.73
2022-12-15T17:26:29.300Z,16.85
2022-12-15T17:29:01.676Z,13.88
2022-12-15T17:31:35.617Z,16.15
2022-12-15T17:34:24.259Z,13.73
2022-12-15T17:36:53.092Z,17.17
2022-12-15T17:39:23.162Z,13.55
2022-12-15T17:42:00.890Z,18.83
2022-12-15T17:44:34.303Z,14.05
2022-12-15T17:47:06.500Z,18.30
2022-12-15T17:49:37.638Z,18.08
2022-12-15T17:52:18.900Z,16.38
2022-12-15T17:57:15.394Z,12.82
2022-12-15T17:59:43.917Z,14.60
2022-12-15T18:02:15.628Z,8.95
2022-12-15T18:04:44.557Z,11.52
2022-12-15T18:07:18.528Z,11.25
2022-12-15T18:09:47.657Z,13.50
2022-12-15T18:12:20.617Z,6.30
2022-12-15T18:14:49.484Z,12.02
2022-12-15T18:17:19.164Z,7.75
2022-12-15T18:19:47.757Z,12.50
2022-12-15T18:22:21.035Z,9.88
2022-12-15T18:24:50.233Z,11.68
2022-12-15T18:27:23.893Z,8.63
2022-12-15T18:29:52.784Z,10.60
2022-12-15T18:32:23.913Z,6.82
2022-12-15T18:34:53.547Z,6.13
2022-12-15T18:37:24.845Z,11.40
2022-12-15T18:39:56.158Z,9.63
2022-12-15T18:42:27.006Z,6.50
2022-12-15T18:44:56.641Z,5.55
2022-12-15T18:47:27.790Z,7.30
2022-12-15T18:49:56.207Z,7.75
2022-12-15T18:52:31.493Z,4.63
2022-12-15T18:55:03.009Z,8.98
2022-12-15T18:57:36.474Z,7.32
2022-12-15T19:00:19.067Z,7.20
2022-12-15T19:02:49.703Z,11.23
2022-12-15T19:08:05.119Z,5.35
2022-12-15T19:10:35.825Z,7.20
2022-12-15T19:15:32.393Z,8.00
2022-12-15T19:18:19.700Z,6.88
2022-12-15T19:21:05.334Z,9.07
2022-12-15T19:23:34.251Z,7.05
2022-12-15T19:26:03.087Z,9.82
2022-12-15T19:28:31.432Z,9.05
2022-12-15T19:30:59.859Z,9.27
2022-12-15T19:33:29.785Z,8.55
2022-12-15T19:35:58.416Z,8.63
2022-12-15T19:38:29.996Z,9.73
2022-12-15T19:41:00.657Z,8.60
2022-12-15T19:45:58.190Z,11.05
2022-12-15T19:48:26.611Z,12.15
2022-12-15T19:50:56.269Z,8.07
2022-12-15T19:53:27.540Z,8.37
2022-12-15T19:55:59.916Z,8.00
2022-12-15T19:58:30.883Z,12.60
2022-12-15T20:01:02.357Z,8.95
2022-12-15T20:03:31.686Z,10.27
2022-12-15T20:06:03.455Z,12.13
2022-12-15T20:08:37.498Z,8.52
2022-12-15T20:11:06.611Z,13.15
2022-12-15T20:13:35.673Z,10.25
2022-12-15T20:16:04.875Z,15.55
2022-12-15T20:18:33.520Z,14.90
2022-12-15T20:21:03.701Z,18.13
2022-12-15T20:23:32.888Z,16.42
2022-12-15T20:26:02.252Z,14.30
2022-12-15T20:28:31.448Z,17.15
2022-12-15T20:31:00.300Z,17.33
2022-12-15T20:33:28.753Z,15.98
2022-12-15T20:35:57.523Z,20.05
2022-12-15T20:38:31.793Z,22.45
2022-12-15T20:41:01.660Z,18.20
2022-12-15T20:43:33.872Z,17.25
2022-12-15T20:46:07.320Z,16.60
2022-12-15T20:48:37.580Z,16.25
2022-12-15T20:51:09.878Z,13.77
2022-12-15T20:53:39.985Z,18.15
2022-12-15T20:56:09.201Z,15.57
2022-12-15T20:58:40.481Z,12.57
2022-12-15T21:01:21.207Z,12.45
2022-12-15T21:03:51.984Z,15.90
2022-12-15T21:06:20.549Z,13.65
2022-12-15T21:08:50.497Z,19.10
2022-12-15T21:11:22.745Z,13.77
2022-12-15T21:13:53.870Z,14.05
2022-12-15T21:16:24.837Z,17.75
2022-12-15T21:21:46.479Z,14.82
2022-12-15T21:24:20.345Z,15.35
2022-12-15T21:26:48.619Z,18.27
2022-12-15T21:29:20.010Z,13.98
2022-12-15T21:31:49.130Z,18.75
2022-12-15T21:34:17.588Z,16.33
2022-12-15T21:36:48.986Z,15.63
2022-12-15T21:39:25.017Z,12.73
2022-12-15T21:41:54.998Z,20.38
2022-12-15T21:44:23.689Z,16.15
2022-12-15T21:46:52.421Z,13.68
2022-12-15T21:49:22.127Z,19.77
2022-12-15T21:51:55.037Z,14.98
2022-12-15T21:54:30.866Z,15.15
2022-12-15T21:57:00.348Z,15.82
2022-12-15T21:59:32.225Z,16.45
2022-12-15T22:02:02.101Z,16.00
2022-12-15T22:04:33.837Z,15.68
2022-12-15T22:07:02.694Z,20.67
2022-12-15T22:09:32.345Z,17.40
2022-12-15T22:12:01.312Z,16.97
2022-12-15T22:14:31.826Z,12.98
2022-12-15T22:17:02.753Z,15.63
2022-12-15T22:19:31.138Z,16.33
2022-12-15T22:21:59.487Z,11.18
2022-12-15T22:24:27.867Z,15.45
2022-12-15T22:26:57.764Z,11.27
2022-12-15T22:29:27.185Z,15.32
2022-12-15T22:31:55.795Z,20.05
2022-12-15T22:34:27.028Z,9.77
2022-12-15T22:36:55.327Z,15.25
2022-12-15T22:39:24.874Z,19.02
2022-12-15T22:41:53.684Z,17.88
2022-12-15T22:44:26.987Z,11.95
2022-12-15T22:46:58.217Z,9.13
2022-12-15T22:49:31.802Z,12.07
2022-12-15T22:52:00.088Z,8.73
2022-12-15T22:54:30.552Z,9.18
2022-12-15T22:57:03.933Z,9.40
2022-12-15T22:59:37.285Z,10.45
2022-12-15T23:02:06.310Z,12.07
2022-12-15T23:04:35.112Z,10.77
2022-12-15T23:07:05.416Z,11.90
2022-12-15T23:09:33.833Z,11.25
2022-12-15T23:12:01.242Z,10.10
2022-12-15T23:14:43.559Z,12.70
2022-12-15T23:17:14.291Z,14.52
2022-12-15T23:19:45.003Z,10.70
2022-12-15T23:24:41.693Z,23.13
2022-12-15T23:27:12.415Z,18.77
2022-12-15T23:29:40.922Z,12.70
2022-12-15T23:32:09.246Z,9.57
2022-12-15T23:34:38.894Z,11.95
2022-12-15T23:37:07.153Z,9.37
2022-12-15T23:39:35.467Z,10.10
2022-12-15T23:42:05.530Z,13.23
2022-12-15T23:44:33.918Z,12.05
2022-12-15T23:47:02.320Z,8.15
2022-12-15T23:49:30.997Z,10.70
2022-12-15T23:52:00.578Z,16.15
2022-12-15T23:54:29.070Z,8.47
2022-12-15T23:56:57.433Z,9.65
2022-12-15T23:59:25.651Z,8.82
